createdAt,value
2022-12-27T00:01:23.273Z,7.70
2022-12-27T00:06:27.278Z,7.80
2022-12-27T00:11:32.562Z,7.90
2022-12-27T00:16:36.373Z,7.80
2022-12-27T00:21:39.041Z,7.90
2022-12-27T00:26:41.951Z,7.80
2022-12-27T00:31:44.566Z,8.00
2022-12-27T00:36:47.115Z,8.10
2022-12-27T00:41:49.723Z,8.20
2022-12-27T00:46:52.172Z,8.20
2022-12-27T00:51:54.779Z,8.20
2022-12-27T00:56:57.249Z,8.10
2022-12-27T01:02:00.061Z,8.10
2022-12-27T01:07:02.694Z,8.10
2022-12-27T01:12:05.497Z,8.10
2022-12-27T01:17:08.081Z,8.10
2022-12-27T01:22:10.724Z,8.00
2022-12-27T01:27:13.199Z,7.90
2022-12-27T01:32:15.654Z,8.00
2022-12-27T01:37:18.246Z,8.00
2022-12-27T01:42:39.678Z,7.90
2022-12-27T01:48:27.307Z,7.80
2022-12-27T01:53:39.789Z,7.70
2022-12-27T01:58:47.130Z,7.70
2022-12-27T02:03:56.997Z,7.60
2022-12-27T02:09:18.447Z,7.60
2022-12-27T02:14:30.360Z,7.60
2022-12-27T02:19:42.012Z,7.50
2022-12-27T02:24:44.648Z,7.40
2022-12-27T02:30:04.724Z,7.30
2022-12-27T02:35:22.543Z,7.20
2022-12-27T02:40:46.583Z,6.50
2022-12-27T02:46:21.815Z,5.70
2022-12-27T02:51:55.867Z,5.10
2022-12-27T02:57:22.173Z,4.80
2022-12-27T03:02:58.183Z,4.60
2022-12-27T03:08:06.698Z,4.50
2022-12-27T03:13:56.067Z,4.40
2022-12-27T03:19:39.109Z,4.10
2022-12-27T03:25:00.484Z,3.70
2022-12-27T03:30:26.705Z,3.30
2022-12-27T03:35:31.507Z,3.10
2022-12-27T03:41:19.800Z,2.90
2022-12-27T03:46:33.845Z,2.80
2022-12-27T03:51:41.987Z,2.80
2022-12-27T03:56:44.480Z,2.80
2022-12-27T04:01:47.049Z,2.90
2022-12-27T04:06:49.966Z,2.90
2022-12-27T04:12:11.084Z,3.00
2022-12-27T04:17:32.071Z,3.20
2022-12-27T04:22:53.380Z,3.30
2022-12-27T04:28:14.528Z,3.20
2022-12-27T04:33:35.572Z,3.00
2022-12-27T04:38:38.314Z,2.80
2022-12-27T04:43:59.407Z,2.60
2022-12-27T04:49:21.337Z,2.40
2022-12-27T04:54:42.599Z,2.30
2022-12-27T05:00:03.707Z,2.30
2022-12-27T05:05:07.528Z,2.30
2022-12-27T05:10:29.790Z,2.20
2022-12-27T05:15:32.453Z,2.20
2022-12-27T05:20:35.311Z,2.10
2022-12-27T05:25:42.785Z,2.00
2022-12-27T05:30:45.630Z,2.00
2022-12-27T05:35:48.258Z,2.00
2022-12-27T05:40:50.931Z,2.10
2022-12-27T05:45:53.886Z,2.30
2022-12-27T05:50:56.443Z,2.40
2022-12-27T05:56:00.123Z,2.50
2022-12-27T06:01:09.109Z,2.70
2022-12-27T06:06:12.085Z,3.10
2022-12-27T06:11:18.078Z,3.20
2022-12-27T06:16:22.480Z,3.30
2022-12-27T06:21:25.079Z,3.30
2022-12-27T06:26:29.507Z,3.40
2022-12-27T06:31:32.082Z,3.30
2022-12-27T06:36:34.595Z,3.40
2022-12-27T06:41:37.071Z,3.40
2022-12-27T06:46:39.650Z,2.20
2022-12-27T06:51:42.179Z,3.50
2022-12-27T06:56:45.155Z,3.60
2022-12-27T07:01:48.049Z,3.60
2022-12-27T07:06:50.646Z,3.60
2022-12-27T07:11:54.112Z,3.70
2022-12-27T07:16:56.784Z,3.80
2022-12-27T07:21:59.382Z,3.90
2022-12-27T07:27:02.999Z,4.00
2022-12-27T07:32:05.731Z,4.10
2022-12-27T07:37:08.555Z,4.10
2022-12-27T07:42:11.139Z,4.10
2022-12-27T07:47:13.789Z,4.20
2022-12-27T07:52:16.280Z,4.10
2022-12-27T07:57:18.890Z,4.20
2022-12-27T08:02:21.524Z,4.30
2022-12-27T08:07:25.523Z,4.40
2022-12-27T08:12:28.078Z,4.50
2022-12-27T08:17:30.670Z,4.60
2022-12-27T08:22:33.108Z,4.60
2022-12-27T08:27:35.814Z,4.60
2022-12-27T08:32:38.434Z,4.70
2022-12-27T08:37:40.981Z,4.80
2022-12-27T08:42:43.577Z,4.90
2022-12-27T08:47:46.238Z,5.00
2022-12-27T08:52:48.957Z,5.10
2022-12-27T08:57:55.759Z,5.20
2022-12-27T09:02:58.868Z,5.00
2022-12-27T09:08:01.595Z,4.70
2022-12-27T09:13:04.480Z,4.80
2022-12-27T09:18:07.623Z,4.70
2022-12-27T09:23:10.188Z,4.80
2022-12-27T09:28:13.462Z,4.70
2022-12-27T09:33:16.099Z,4.80
2022-12-27T09:38:18.800Z,4.80
2022-12-27T09:43:45.094Z,4.70
2022-12-27T09:48:49.297Z,4.60
2022-12-27T09:54:01.632Z,4.50
2022-12-27T09:59:09.753Z,4.40
2022-12-27T10:04:14.115Z,4.50
2022-12-27T10:09:25.753Z,4.50
2022-12-27T10:14:59.886Z,4.60
2022-12-27T10:20:25.123Z,4.70
2022-12-27T10:25:28.804Z,4.90
2022-12-27T10:30:31.469Z,4.90
2022-12-27T10:35:33.982Z,5.10
2022-12-27T10:41:05.521Z,5.20
2022-12-27T10:46:13.899Z,5.10
2022-12-27T10:51:16.719Z,5.10
2022-12-27T10:56:26.940Z,5.20
2022-12-27T11:01:32.493Z,5.20
2022-12-27T11:06:35.321Z,5.20
2022-12-27T11:11:37.903Z,5.00
2022-12-27T11:16:41.151Z,5.10
2022-12-27T11:21:43.713Z,5.20
2022-12-27T11:26:59.202Z,5.20
2022-12-27T11:32:08.209Z,5.30
2022-12-27T11:37:17.088Z,5.20
2022-12-27T11:42:45.807Z,5.10
2022-12-27T11:48:03.913Z,5.00
2022-12-27T11:53:35.726Z,5.00
2022-12-27T11:58:49.811Z,4.90
2022-12-27T12:04:20.095Z,4.90
2022-12-27T12:09:55.180Z,4.90
2022-12-27T12:15:30.185Z,4.90
2022-12-27T12:20:50.822Z,5.00
2022-12-27T12:26:20.081Z,5.00
2022-12-27T12:31:56.532Z,5.10
2022-12-27T12:37:06.952Z,5.20
2022-12-27T12:42:09.535Z,5.30
2022-12-27T12:47:39.304Z,5.20
2022-12-27T12:52:47.865Z,5.20
2022-12-27T12:58:17.522Z,5.20
2022-12-27T13:03:36.324Z,5.10
2022-12-27T13:08:47.753Z,5.10
2022-12-27T13:14:02.278Z,5.00
2022-12-27T13:19:39.138Z,5.00
2022-12-27T13:24:59.543Z,5.00
2022-12-27T13:30:21.696Z,5.00
2022-12-27T13:35:51.374Z,4.90
2022-12-27T13:41:06.478Z,4.90
2022-12-27T13:46:30.618Z,4.90
2022-12-27T13:51:47.934Z,4.90
2022-12-27T13:57:32.263Z,4.90
2022-12-27T14:02:37.879Z,4.90
2022-12-27T14:08:01.567Z,4.80
2022-12-27T14:13:08.500Z,4.80
2022-12-27T14:18:33.291Z,4.80
2022-12-27T14:24:03.461Z,4.80
2022-12-27T14:29:23.867Z,4.70
2022-12-27T14:34:41.398Z,4.70
2022-12-27T14:40:23.862Z,4.70
2022-12-27T14:45:57.977Z,4.70
2022-12-27T14:57:31.724Z,4.60
2022-12-27T15:03:03.916Z,4.60
2022-12-27T15:08:22.067Z,4.60
2022-12-27T15:13:48.826Z,4.60
2022-12-27T15:19:20.344Z,4.50
2022-12-27T15:24:48.966Z,4.50
2022-12-27T15:30:25.255Z,4.50
2022-12-27T15:35:30.590Z,4.50
2022-12-27T15:40:33.059Z,4.50
2022-12-27T15:45:54.020Z,4.50
2022-12-27T15:51:11.476Z,4.50
2022-12-27T15:56:30.652Z,4.50
2022-12-27T16:01:34.875Z,4.50
2022-12-27T16:06:43.583Z,4.40
2022-12-27T16:12:08.095Z,4.40
2022-12-27T16:17:24.074Z,4.50
2022-12-27T16:22:36.022Z,4.40
2022-12-27T16:27:38.688Z,4.40
2022-12-27T16:32:48.776Z,4.40
2022-12-27T16:37:54.088Z,4.40
2022-12-27T16:42:56.551Z,4.30
2022-12-27T16:48:40.423Z,4.30
2022-12-27T16:54:01.415Z,4.40
2022-12-27T16:59:24.027Z,4.30
2022-12-27T17:04:56.596Z,4.30
2022-12-27T17:10:25.039Z,4.30
2022-12-27T17:15:28.738Z,4.30
2022-12-27T17:20:32.039Z,4.30
2022-12-27T17:25:48.669Z,4.30
2022-12-27T17:31:07.519Z,4.20
2022-12-27T17:36:35.571Z,4.30
2022-12-27T17:42:15.148Z,4.30
2022-12-27T17:47:21.763Z,4.20
2022-12-27T17:52:44.936Z,4.20
2022-12-27T17:57:55.373Z,4.10
2022-12-27T18:03:00.780Z,4.10
2022-12-27T18:08:07.318Z,4.10
2022-12-27T18:13:18.510Z,4.00
2022-12-27T18:18:28.578Z,4.00
2022-12-27T18:23:41.243Z,4.00
2022-12-27T18:28:43.923Z,4.00
2022-12-27T18:33:52.479Z,4.00
2022-12-27T18:39:08.446Z,4.00
2022-12-27T18:44:21.573Z,4.00
2022-12-27T18:49:30.732Z,4.00
2022-12-27T18:54:35.595Z,4.00
2022-12-27T18:59:38.049Z,4.10
2022-12-27T19:04:40.660Z,4.00
2022-12-27T19:09:51.050Z,4.00
2022-12-27T19:14:54.189Z,4.00
2022-12-27T19:20:06.523Z,4.00
2022-12-27T19:25:38.367Z,4.00
2022-12-27T19:31:04.943Z,4.00
2022-12-27T19:36:09.686Z,4.00
2022-12-27T19:41:14.529Z,4.00
2022-12-27T19:46:19.216Z,4.00
2022-12-27T19:51:22.070Z,4.00
2022-12-27T19:56:25.513Z,4.00
2022-12-27T20:01:28.396Z,4.00
2022-12-27T20:06:31.101Z,4.00
2022-12-27T20:11:34.019Z,4.00
2022-12-27T20:16:37.686Z,4.00
2022-12-27T20:21:40.762Z,4.00
2022-12-27T20:26:43.638Z,4.00
2022-12-27T20:31:48.618Z,4.00
2022-12-27T20:36:52.228Z,4.00
2022-12-27T20:41:56.268Z,3.80
2022-12-27T20:46:58.843Z,3.30
2022-12-27T20:52:01.711Z,2.80
2022-12-27T20:57:07.479Z,2.60
2022-12-27T21:02:13.977Z,2.40
2022-12-27T21:07:16.829Z,2.30
2022-12-27T21:12:19.439Z,2.10
2022-12-27T21:17:24.822Z,2.10
2022-12-27T21:22:27.302Z,2.10
2022-12-27T21:27:29.846Z,2.30
2022-12-27T21:32:32.459Z,2.20
2022-12-27T21:37:35.156Z,2.20
2022-12-27T21:42:37.704Z,2.60
2022-12-27T21:47:40.141Z,2.70
2022-12-27T21:52:42.981Z,2.40
2022-12-27T21:57:45.418Z,2.20
2022-12-27T22:02:49.987Z,1.90
2022-12-27T22:07:55.180Z,1.80
2022-12-27T22:12:57.754Z,1.60
2022-12-27T22:18:00.265Z,1.40
2022-12-27T22:23:02.750Z,1.30
2022-12-27T22:28:05.306Z,1.40
2022-12-27T22:33:08.196Z,1.30
2022-12-27T22:38:10.686Z,1.20
2022-12-27T22:43:13.159Z,1.20
2022-12-27T22:48:15.664Z,1.20
2022-12-27T22:53:18.187Z,1.30
2022-12-27T22:58:20.780Z,1.50
2022-12-27T23:03:23.314Z,1.20
2022-12-27T23:08:26.328Z,1.10
2022-12-27T23:13:28.758Z,1.00
2022-12-27T23:18:32.018Z,0.70
2022-12-27T23:23:36.021Z,0.60
2022-12-27T23:28:39.876Z,0.70
2022-12-27T23:33:43.716Z,1.00
2022-12-27T23:38:46.548Z,1.10
2022-12-27T23:43:53.171Z,1.20
2022-12-27T23:48:57.619Z,1.40
2022-12-27T23:54:00.442Z,1.20
2022-12-27T23:59:03.741Z,0.90
